Time;durP1;ratioP1;P1;durP2;ratioP2;P2;SDS_P1;SDS_P2;PMS_P1;PMS_P2;Temp;Humidity;BMP_temperature;BMP_pressure;BME280_temperature;BME280_humidity;BME280_pressure;Samples;Min_cycle;Max_cycle;Signal;HPM_P1;HPM_P2
2022/03/10 00:01:50;;;;;;;12.32;6.78;;;1.90;53.80;;;;;;5058521;28;20052;-79
2022/03/10 00:04:15;;;;;;;11.10;6.25;;;1.80;53.90;;;;;;5032810;28;20432;-78
2022/03/10 00:06:41;;;;;;;11.18;6.53;;;1.80;53.90;;;;;;5055362;28;20039;-75
2022/03/10 00:09:06;;;;;;;13.25;7.30;;;1.70;53.90;;;;;;5047428;28;20033;-76
2022/03/10 00:11:32;;;;;;;14.32;7.22;;;1.70;54.10;;;;;;5062763;28;20041;-76
2022/03/10 00:13:57;;;;;;;11.55;7.30;;;1.70;54.10;;;;;;5056857;28;20029;-77
2022/03/10 00:16:23;;;;;;;11.52;6.93;;;1.60;54.20;;;;;;5064854;28;20067;-76
2022/03/10 00:18:48;;;;;;;13.90;6.50;;;1.60;54.40;;;;;;5054420;28;20059;-76
2022/03/10 00:21:14;;;;;;;10.95;5.65;;;1.60;54.40;;;;;;5045145;28;20056;-76
2022/03/10 00:23:40;;;;;;;9.60;6.22;;;1.60;54.50;;;;;;5056098;28;20064;-77
2022/03/10 00:26:05;;;;;;;13.00;6.38;;;1.50;54.50;;;;;;5059306;28;20036;-77
2022/03/10 00:28:31;;;;;;;12.20;6.38;;;1.50;54.60;;;;;;5048857;28;20106;-76
2022/03/10 00:30:56;;;;;;;13.65;7.18;;;1.40;54.60;;;;;;5057624;28;20041;-76
2022/03/10 00:33:22;;;;;;;11.45;6.53;;;1.40;54.70;;;;;;5065306;28;20421;-76
2022/03/10 00:35:48;;;;;;;11.95;6.45;;;1.40;54.70;;;;;;5054869;28;20119;-77
2022/03/10 00:38:14;;;;;;;11.57;6.32;;;1.40;54.80;;;;;;5043014;28;20036;-76
2022/03/10 00:40:39;;;;;;;17.20;6.45;;;1.30;54.90;;;;;;5059149;28;20035;-77
2022/03/10 00:43:10;;;;;;;11.25;6.13;;;1.30;54.90;;;;;;5057280;28;20052;-76
2022/03/10 00:45:35;;;;;;;12.57;6.88;;;1.30;55.20;;;;;;5041418;28;20033;-76
2022/03/10 00:48:01;;;;;;;11.93;6.20;;;1.20;55.00;;;;;;5057408;28;20044;-76
2022/03/10 00:50:27;;;;;;;11.95;6.15;;;1.20;55.10;;;;;;5055280;28;20044;-76
2022/03/10 00:52:52;;;;;;;12.52;6.55;;;1.20;55.20;;;;;;5058559;28;20401;-77
2022/03/10 00:55:18;;;;;;;11.23;6.07;;;1.10;55.20;;;;;;5058029;28;20933;-76
2022/03/10 00:57:44;;;;;;;10.98;6.72;;;1.10;55.30;;;;;;5046271;28;20571;-76
2022/03/10 01:00:10;;;;;;;12.23;6.20;;;1.00;55.40;;;;;;5050020;28;20064;-77
2022/03/10 01:02:35;;;;;;;10.43;6.40;;;1.00;55.50;;;;;;5062628;28;20064;-76
2022/03/10 01:05:02;;;;;;;12.40;6.97;;;1.00;55.50;;;;;;5032863;28;20055;-76
2022/03/10 01:07:27;;;;;;;13.30;6.97;;;1.00;55.60;;;;;;5042421;28;20568;-74
2022/03/10 01:09:53;;;;;;;12.35;6.05;;;0.90;55.60;;;;;;5061671;28;20044;-76
2022/03/10 01:12:18;;;;;;;12.27;6.30;;;0.90;55.70;;;;;;5054733;28;20035;-76
2022/03/10 01:14:44;;;;;;;10.35;6.10;;;0.90;55.70;;;;;;5043774;28;20075;-77
2022/03/10 01:17:10;;;;;;;11.75;6.35;;;0.80;55.70;;;;;;5062035;28;20051;-76
2022/03/10 01:19:35;;;;;;;13.40;7.00;;;0.80;55.80;;;;;;5056548;28;20040;-77
2022/03/10 01:22:01;;;;;;;11.50;6.40;;;0.80;55.90;;;;;;5061153;28;20094;-77
2022/03/10 01:24:26;;;;;;;10.52;5.90;;;0.70;55.90;;;;;;5045351;28;20063;-74
2022/03/10 01:26:52;;;;;;;10.38;6.22;;;0.70;56.00;;;;;;5029206;28;20036;-75
2022/03/10 01:29:17;;;;;;;11.15;6.25;;;0.70;56.00;;;;;;5054085;28;20036;-75
2022/03/10 01:31:43;;;;;;;15.50;6.68;;;0.70;56.00;;;;;;5063406;28;20107;-76
2022/03/10 01:34:09;;;;;;;12.35;6.82;;;0.60;56.10;;;;;;5062659;28;20040;-76
2022/03/10 01:36:34;;;;;;;12.57;6.63;;;0.60;56.20;;;;;;5060481;28;20540;-76
2022/03/10 01:39:04;;;;;;;12.77;6.68;;;0.50;56.20;;;;;;5042447;28;20033;-77
2022/03/10 01:41:32;;;;;;;13.43;6.63;;;0.50;56.30;;;;;;5036547;28;22281;-76
2022/03/10 01:43:59;;;;;;;12.80;6.60;;;0.50;56.30;;;;;;5040891;28;20066;-76
2022/03/10 01:46:24;;;;;;;12.02;6.68;;;0.50;56.50;;;;;;5040059;28;20057;-76
2022/03/10 01:48:50;;;;;;;12.73;7.10;;;0.40;56.50;;;;;;5055206;28;20055;-76
2022/03/10 01:51:16;;;;;;;14.23;5.90;;;0.40;56.60;;;;;;5056977;28;20397;-76
2022/03/10 01:53:42;;;;;;;11.80;6.43;;;0.40;56.70;;;;;;5059111;28;20396;-76
2022/03/10 01:56:08;;;;;;;11.70;7.18;;;0.40;56.80;;;;;;5063338;28;20032;-76
2022/03/10 01:58:34;;;;;;;12.50;6.40;;;0.40;56.90;;;;;;5049796;28;20063;-76
2022/03/10 02:01:00;;;;;;;9.95;6.10;;;0.30;56.90;;;;;;5057093;28;20072;-76
2022/03/10 02:03:25;;;;;;;11.73;6.45;;;0.30;56.90;;;;;;5056302;28;20085;-76
2022/03/10 02:05:51;;;;;;;11.50;6.00;;;0.30;57.00;;;;;;5040177;28;20536;-76
2022/03/10 02:11:00;;;;;;;11.68;6.07;;;0.20;57.10;;;;;;5057806;28;20036;-75
2022/03/10 02:13:26;;;;;;;13.32;7.03;;;0.20;57.10;;;;;;5049317;28;20044;-76
2022/03/10 02:18:36;;;;;;;14.23;6.45;;;0.20;57.20;;;;;;5050564;28;20169;-77
2022/03/10 02:21:01;;;;;;;11.00;6.18;;;0.10;57.20;;;;;;5034276;28;20120;-76
2022/03/10 02:23:27;;;;;;;11.57;5.85;;;0.10;57.20;;;;;;5059909;28;20060;-76
2022/03/10 02:25:52;;;;;;;11.65;6.70;;;0.00;57.30;;;;;;5037282;28;20032;-76
2022/03/10 02:28:18;;;;;;;11.85;5.85;;;0.00;57.40;;;;;;5027944;28;20454;-76
2022/03/10 02:30:44;;;;;;;10.15;5.90;;;0.00;57.30;;;;;;5053755;28;20040;-76
2022/03/10 02:33:09;;;;;;;11.38;6.10;;;0.00;57.40;;;;;;5044632;28;20036;-76
2022/03/10 02:35:35;;;;;;;11.05;6.65;;;-0.10;57.40;;;;;;5012483;28;20497;-77
2022/03/10 02:38:01;;;;;;;11.80;6.47;;;-0.10;57.60;;;;;;5060501;28;20032;-77
2022/03/10 02:40:26;;;;;;;14.75;8.27;;;-0.10;57.60;;;;;;5036237;28;20062;-77
2022/03/10 02:42:52;;;;;;;10.52;5.97;;;-0.10;57.70;;;;;;5029552;28;20059;-76
2022/03/10 02:45:17;;;;;;;10.07;6.03;;;-0.20;57.70;;;;;;5059766;28;20040;-76
2022/03/10 02:47:43;;;;;;;12.05;5.68;;;-0.20;57.80;;;;;;5050726;28;20563;-77
2022/03/10 02:50:09;;;;;;;12.10;5.95;;;-0.20;57.90;;;;;;5055532;28;20032;-76
2022/03/10 02:52:37;;;;;;;12.73;6.63;;;-0.20;57.90;;;;;;5037373;28;20044;-76
2022/03/10 02:55:07;;;;;;;10.95;6.30;;;-0.20;58.00;;;;;;5056701;28;20409;-76
2022/03/10 02:57:33;;;;;;;12.20;6.53;;;-0.30;58.10;;;;;;5037950;28;20036;-76
2022/03/10 02:59:59;;;;;;;11.38;6.38;;;-0.30;58.00;;;;;;5060861;28;20036;-75
2022/03/10 03:02:25;;;;;;;10.35;6.10;;;-0.30;58.10;;;;;;5046695;28;20060;-75
2022/03/10 03:04:51;;;;;;;12.48;6.53;;;-0.40;58.10;;;;;;5023403;28;20492;-76
2022/03/10 03:07:16;;;;;;;13.20;6.85;;;-0.40;58.10;;;;;;5014817;28;20624;-76
2022/03/10 03:09:42;;;;;;;13.30;6.40;;;-0.40;58.20;;;;;;5041621;28;20093;-77
2022/03/10 03:12:07;;;;;;;14.68;6.70;;;-0.40;58.30;;;;;;5057594;28;20060;-76
2022/03/10 03:14:33;;;;;;;14.63;7.57;;;-0.50;58.30;;;;;;5047271;28;20063;-76
2022/03/10 03:16:59;;;;;;;14.07;7.40;;;-0.50;58.40;;;;;;5057781;28;20115;-76
2022/03/10 03:19:24;;;;;;;14.98;6.88;;;-0.50;58.40;;;;;;5037967;28;20059;-76
2022/03/10 03:21:53;;;;;;;13.48;7.05;;;-0.50;58.50;;;;;;5059335;28;20405;-76
2022/03/10 03:24:19;;;;;;;16.10;6.95;;;-0.60;58.60;;;;;;5030563;28;20028;-76
2022/03/10 03:26:45;;;;;;;14.93;7.97;;;-0.60;58.60;;;;;;5042892;28;20063;-78
2022/03/10 03:29:10;;;;;;;15.65;7.55;;;-0.60;58.70;;;;;;5036620;28;20024;-75
2022/03/10 03:31:36;;;;;;;14.38;7.75;;;-0.60;58.80;;;;;;5034631;28;20037;-76
2022/03/10 03:34:05;;;;;;;15.82;8.18;;;-0.70;58.70;;;;;;5033338;28;20041;-76
2022/03/10 03:36:30;;;;;;;18.90;8.23;;;-0.70;58.80;;;;;;5040504;28;20040;-76
2022/03/10 03:38:57;;;;;;;15.93;8.40;;;-0.70;58.80;;;;;;5057148;28;20029;-76
2022/03/10 03:41:23;;;;;;;15.13;7.82;;;-0.70;58.90;;;;;;5050273;28;20036;-77
2022/03/10 03:43:48;;;;;;;17.85;8.25;;;-0.70;59.00;;;;;;5044467;28;20041;-77
2022/03/10 03:46:14;;;;;;;15.02;7.85;;;-0.70;59.00;;;;;;5051668;28;20102;-76
2022/03/10 03:48:39;;;;;;;14.20;7.70;;;-0.80;59.10;;;;;;5052933;28;20109;-76
2022/03/10 03:51:05;;;;;;;12.45;6.90;;;-0.80;59.20;;;;;;5034782;28;20036;-76
2022/03/10 03:53:31;;;;;;;14.73;7.05;;;-0.80;59.30;;;;;;5057754;28;20045;-75
2022/03/10 03:55:56;;;;;;;10.90;6.57;;;-0.80;59.30;;;;;;5055412;28;20656;-75
2022/03/10 03:58:22;;;;;;;11.90;6.80;;;-0.90;59.30;;;;;;5037223;28;20111;-76
2022/03/10 04:00:47;;;;;;;14.00;6.68;;;-0.90;59.30;;;;;;5057614;28;20047;-76
2022/03/10 04:03:13;;;;;;;13.45;7.20;;;-0.90;59.40;;;;;;5046687;28;20067;-76
2022/03/10 04:05:39;;;;;;;13.90;6.65;;;-0.90;59.50;;;;;;5055368;28;20029;-76
2022/03/10 04:08:10;;;;;;;14.13;7.07;;;-1.00;59.50;;;;;;5039513;28;20036;-76
2022/03/10 04:10:36;;;;;;;15.73;7.55;;;-1.00;59.60;;;;;;5057975;28;20029;-77
2022/03/10 04:13:02;;;;;;;11.60;5.80;;;-1.00;59.60;;;;;;5048717;28;20033;-76
2022/03/10 04:15:28;;;;;;;12.88;6.28;;;-1.00;59.70;;;;;;5058712;28;20039;-75
2022/03/10 04:17:53;;;;;;;11.80;6.30;;;-1.00;59.70;;;;;;5040092;28;20037;-76
2022/03/10 04:20:19;;;;;;;14.25;6.43;;;-1.00;59.80;;;;;;5047978;28;20038;-76
2022/03/10 04:22:44;;;;;;;14.82;6.03;;;-1.10;59.80;;;;;;5051395;28;20025;-76
2022/03/10 04:25:10;;;;;;;13.48;6.65;;;-1.10;59.90;;;;;;5043311;28;20109;-76
2022/03/10 04:27:36;;;;;;;10.07;6.13;;;-1.10;59.90;;;;;;5040659;28;20098;-77
2022/03/10 04:30:03;;;;;;;15.60;6.63;;;-1.10;60.00;;;;;;5026180;28;20040;-75
2022/03/10 04:32:28;;;;;;;10.35;5.57;;;-1.10;60.00;;;;;;5046183;28;20045;-75
2022/03/10 04:34:54;;;;;;;14.20;6.45;;;-1.20;60.00;;;;;;5060622;28;20028;-75
2022/03/10 04:37:20;;;;;;;10.00;5.85;;;-1.20;60.10;;;;;;5065325;28;20398;-76
2022/03/10 04:39:45;;;;;;;10.48;6.28;;;-1.20;60.20;;;;;;5058873;28;20164;-76
2022/03/10 04:42:11;;;;;;;11.20;6.22;;;-1.20;60.20;;;;;;5021802;28;20033;-76
2022/03/10 04:44:36;;;;;;;14.95;6.53;;;-1.20;60.30;;;;;;5024049;28;20493;-77
2022/03/10 04:47:02;;;;;;;14.80;6.93;;;-1.30;60.30;;;;;;5046385;28;20044;-75
2022/03/10 04:49:27;;;;;;;14.13;6.57;;;-1.30;60.40;;;;;;5041995;28;20153;-77
2022/03/10 04:51:53;;;;;;;12.43;6.55;;;-1.30;60.40;;;;;;5049437;28;20045;-75
2022/03/10 04:54:18;;;;;;;11.05;5.78;;;-1.30;60.50;;;;;;5060118;28;20032;-75
2022/03/10 04:56:44;;;;;;;11.75;5.45;;;-1.40;60.60;;;;;;5045714;28;20650;-75
2022/03/10 04:59:10;;;;;;;10.73;5.93;;;-1.30;60.70;;;;;;5030646;28;20039;-75
2022/03/10 05:01:35;;;;;;;14.38;6.38;;;-1.40;60.70;;;;;;5041330;28;20663;-77
2022/03/10 05:04:01;;;;;;;11.93;6.72;;;-1.40;60.80;;;;;;5034379;28;20029;-75
2022/03/10 05:06:26;;;;;;;20.42;6.32;;;-1.40;60.80;;;;;;5057547;28;20028;-75
2022/03/10 05:08:52;;;;;;;11.77;6.50;;;-1.40;60.90;;;;;;5054709;28;20033;-75
2022/03/10 05:11:17;;;;;;;11.70;6.70;;;-1.40;61.00;;;;;;5059921;28;20036;-75
2022/03/10 05:13:43;;;;;;;10.15;5.75;;;-1.40;61.00;;;;;;5032735;28;20754;-76
2022/03/10 05:16:08;;;;;;;10.85;6.43;;;-1.50;61.00;;;;;;5058227;28;20114;-75
2022/03/10 05:18:34;;;;;;;11.18;6.53;;;-1.50;61.10;;;;;;5060418;28;20068;-75
2022/03/10 05:20:59;;;;;;;12.65;6.25;;;-1.50;61.10;;;;;;5056768;28;20679;-75
2022/03/10 05:23:25;;;;;;;11.90;6.10;;;-1.60;61.10;;;;;;5061806;28;20531;-75
2022/03/10 05:25:51;;;;;;;14.25;6.60;;;-1.50;61.20;;;;;;5057658;28;20076;-75
2022/03/10 05:28:17;;;;;;;12.35;6.63;;;-1.60;61.20;;;;;;5030857;28;20489;-76
2022/03/10 05:30:44;;;;;;;12.13;5.45;;;-1.60;61.30;;;;;;5057767;28;20104;-75
2022/03/10 05:33:10;;;;;;;10.15;5.72;;;-1.60;61.30;;;;;;5042195;28;20044;-75
2022/03/10 05:35:35;;;;;;;13.07;6.72;;;-1.70;61.40;;;;;;5059088;28;20039;-74
2022/03/10 05:38:01;;;;;;;11.30;5.95;;;-1.70;61.50;;;;;;5063408;28;20047;-75
2022/03/10 05:40:26;;;;;;;14.43;6.00;;;-1.70;61.50;;;;;;5038128;28;21391;-75
2022/03/10 05:42:53;;;;;;;11.15;6.45;;;-1.70;61.60;;;;;;5044001;28;20489;-75
2022/03/10 05:45:20;;;;;;;11.32;6.55;;;-1.70;61.60;;;;;;5039069;28;20126;-75
2022/03/10 05:47:47;;;;;;;14.45;6.85;;;-1.70;61.70;;;;;;5058029;28;20033;-75
2022/03/10 05:50:12;;;;;;;11.75;6.30;;;-1.70;61.80;;;;;;5041493;28;20046;-75
2022/03/10 05:52:38;;;;;;;10.45;6.53;;;-1.80;61.80;;;;;;5062613;28;20045;-75
2022/03/10 05:55:04;;;;;;;12.15;6.78;;;-1.70;61.90;;;;;;5029540;28;20041;-76
2022/03/10 05:57:30;;;;;;;16.85;7.88;;;-1.80;61.90;;;;;;5030155;28;20033;-75
2022/03/10 05:59:56;;;;;;;13.65;7.18;;;-1.80;61.90;;;;;;5039928;28;20034;-75
2022/03/10 06:02:21;;;;;;;16.00;7.40;;;-1.80;62.00;;;;;;5046013;28;20086;-76
2022/03/10 06:04:47;;;;;;;17.55;8.25;;;-1.80;62.10;;;;;;5051576;28;20037;-75
2022/03/10 06:07:12;;;;;;;15.10;7.47;;;-1.80;62.10;;;;;;5050283;28;20134;-75
2022/03/10 06:09:38;;;;;;;15.60;6.85;;;-1.80;62.20;;;;;;5053574;28;20029;-75
2022/03/10 06:12:04;;;;;;;12.48;6.88;;;-1.80;62.20;;;;;;5052008;28;20032;-76
2022/03/10 06:14:29;;;;;;;11.27;6.75;;;-1.90;62.30;;;;;;5059962;28;20137;-75
2022/03/10 06:16:55;;;;;;;11.52;6.68;;;-1.80;62.40;;;;;;5053820;28;20085;-76
2022/03/10 06:19:20;;;;;;;11.68;6.43;;;-1.80;62.40;;;;;;5052694;28;20028;-75
2022/03/10 06:21:46;;;;;;;12.40;6.90;;;-1.90;62.40;;;;;;5005201;28;20478;-75
2022/03/10 06:24:13;;;;;;;15.18;7.35;;;-1.80;62.50;;;;;;5056044;28;20087;-74
2022/03/10 06:26:39;;;;;;;12.30;7.32;;;-1.90;62.50;;;;;;5041267;28;20035;-75
2022/03/10 06:29:58;;;;;;;;;;;;;;;;;;;;;
2022/03/10 06:32:24;;;;;;;17.20;8.35;;;-1.80;63.00;;;;;;5057908;28;21358;-75
2022/03/10 06:34:51;;;;;;;15.02;8.35;;;-1.80;62.50;;;;;;5035098;28;20047;-77
2022/03/10 06:37:16;;;;;;;15.77;8.88;;;-1.80;62.70;;;;;;5050247;28;20059;-75
2022/03/10 06:39:42;;;;;;;19.00;9.00;;;-1.80;62.70;;;;;;5046708;28;20341;-75
2022/03/10 06:42:09;;;;;;;13.55;7.80;;;-1.70;62.80;;;;;;5030055;28;20777;-77
2022/03/10 06:44:36;;;;;;;14.23;8.07;;;-1.70;62.90;;;;;;5046829;28;20603;-76
2022/03/10 06:47:03;;;;;;;14.85;8.13;;;-1.70;62.90;;;;;;5052492;28;20759;-77
2022/03/10 06:49:29;;;;;;;15.38;7.55;;;-1.60;63.00;;;;;;5040344;28;20052;-76
2022/03/10 06:51:54;;;;;;;15.80;7.43;;;-1.60;63.00;;;;;;5020783;28;20032;-75
2022/03/10 06:54:20;;;;;;;13.43;7.50;;;-1.50;63.00;;;;;;5047337;28;20060;-75
2022/03/10 06:56:46;;;;;;;16.75;8.60;;;-1.50;63.90;;;;;;5037081;28;20037;-75
2022/03/10 06:59:11;;;;;;;14.13;7.55;;;-1.50;63.10;;;;;;5053611;28;20045;-76
2022/03/10 07:01:37;;;;;;;15.48;7.50;;;-1.40;63.20;;;;;;5052715;28;20071;-75
2022/03/10 07:04:02;;;;;;;16.52;8.32;;;-1.30;63.20;;;;;;5049176;28;20117;-75
2022/03/10 07:06:28;;;;;;;18.27;9.98;;;-1.30;63.20;;;;;;5030226;28;20043;-76
2022/03/10 07:08:53;;;;;;;19.77;10.52;;;-1.20;63.20;;;;;;5054024;28;20024;-75
2022/03/10 07:11:19;;;;;;;22.52;13.52;;;-1.10;63.30;;;;;;5027928;28;20029;-76
2022/03/10 07:13:45;;;;;;;30.50;15.20;;;-1.00;63.30;;;;;;5055692;28;20040;-76
2022/03/10 07:16:11;;;;;;;30.30;15.20;;;-0.90;63.40;;;;;;5034413;28;20440;-75
2022/03/10 07:18:37;;;;;;;30.73;14.32;;;-0.80;63.30;;;;;;5035696;28;20040;-75
2022/03/10 07:21:04;;;;;;;22.35;11.90;;;-0.70;63.40;;;;;;5018803;28;20066;-75
2022/03/10 07:23:30;;;;;;;24.95;11.88;;;-0.60;63.50;;;;;;5029441;28;20121;-75
2022/03/10 07:25:55;;;;;;;24.67;13.27;;;-0.50;63.50;;;;;;5007474;28;20071;-76
2022/03/10 07:28:21;;;;;;;29.63;14.70;;;-0.40;63.50;;;;;;5040792;28;20060;-75
2022/03/10 07:30:46;;;;;;;32.03;15.10;;;-0.30;64.40;;;;;;5031782;28;20098;-76
2022/03/10 07:33:12;;;;;;;23.60;12.55;;;-0.10;63.50;;;;;;5058181;28;20055;-77
2022/03/10 07:35:37;;;;;;;27.58;13.18;;;0.00;63.60;;;;;;5050111;28;20033;-75
2022/03/10 07:38:03;;;;;;;24.45;12.85;;;0.10;63.60;;;;;;5032741;28;20319;-76
2022/03/10 07:40:28;;;;;;;28.73;13.93;;;0.20;63.60;;;;;;5054057;28;20033;-76
2022/03/10 07:42:54;;;;;;;31.58;13.20;;;0.40;63.60;;;;;;5023086;28;20642;-75
2022/03/10 07:45:20;;;;;;;27.30;12.73;;;0.50;63.50;;;;;;5052397;28;20036;-76
2022/03/10 07:47:45;;;;;;;23.80;11.68;;;0.60;63.50;;;;;;5057869;28;20048;-76
2022/03/10 07:50:11;;;;;;;28.05;12.60;;;0.70;63.40;;;;;;5079178;28;20142;-76
2022/03/10 07:52:37;;;;;;;25.63;11.00;;;0.80;63.40;;;;;;5051742;28;20085;-76
2022/03/10 07:55:03;;;;;;;21.63;10.48;;;1.00;63.40;;;;;;5024546;28;20519;-76
2022/03/10 07:57:28;;;;;;;20.73;11.00;;;1.10;63.30;;;;;;5034372;28;20125;-76
2022/03/10 07:59:54;;;;;;;19.42;11.27;;;1.20;63.20;;;;;;5061175;28;20156;-78
2022/03/10 08:02:21;;;;;;;26.05;10.15;;;1.30;63.20;;;;;;5046390;28;20036;-77
2022/03/10 08:04:46;;;;;;;20.02;9.88;;;1.50;63.20;;;;;;5059658;28;20029;-77
2022/03/10 08:07:12;;;;;;;16.08;9.90;;;1.60;63.20;;;;;;5042129;28;20089;-77
2022/03/10 08:09:38;;;;;;;20.75;10.57;;;1.80;63.20;;;;;;5064850;28;20033;-77
2022/03/10 08:12:04;;;;;;;25.88;11.02;;;2.00;63.10;;;;;;5062492;28;20037;-78
2022/03/10 08:14:30;;;;;;;25.02;10.05;;;2.10;63.00;;;;;;5038088;28;20459;-77
2022/03/10 08:16:55;;;;;;;18.65;10.25;;;2.30;62.90;;;;;;5036975;28;20049;-78
2022/03/10 08:19:21;;;;;;;21.35;10.07;;;2.40;62.90;;;;;;5039742;28;20035;-78
2022/03/10 08:21:47;;;;;;;20.45;9.93;;;2.70;62.90;;;;;;5014219;28;20028;-77
2022/03/10 08:24:13;;;;;;;16.67;8.48;;;2.90;62.80;;;;;;5057036;28;20132;-76
2022/03/10 08:26:39;;;;;;;15.82;8.43;;;3.10;62.70;;;;;;5029022;28;20184;-77
2022/03/10 08:29:05;;;;;;;17.95;8.60;;;3.30;62.60;;;;;;5061683;28;20033;-77
2022/03/10 08:31:30;;;;;;;20.60;8.93;;;3.50;62.30;;;;;;5037489;28;20051;-77
2022/03/10 08:33:56;;;;;;;16.10;9.43;;;3.80;62.20;;;;;;5053620;28;20497;-77
2022/03/10 08:36:21;;;;;;;18.75;8.68;;;4.00;62.00;;;;;;5041121;28;20564;-77
2022/03/10 08:38:47;;;;;;;19.15;8.38;;;4.20;61.80;;;;;;5040584;28;20646;-77
2022/03/10 08:41:13;;;;;;;14.95;8.27;;;4.50;61.60;;;;;;5036747;28;20024;-78
2022/03/10 08:43:38;;;;;;;14.25;8.38;;;4.70;61.40;;;;;;5060226;28;20113;-76
2022/03/10 08:46:04;;;;;;;16.48;8.20;;;4.90;61.20;;;;;;5020619;28;20499;-77
2022/03/10 08:48:34;;;;;;;12.63;8.13;;;5.20;60.90;;;;;;5041758;28;20048;-77
2022/03/10 08:51:00;;;;;;;14.57;8.27;;;5.30;60.60;;;;;;5045909;28;20039;-77
2022/03/10 08:53:26;;;;;;;14.60;7.90;;;5.60;60.40;;;;;;5011695;28;20047;-76
2022/03/10 08:55:51;;;;;;;14.27;7.95;;;5.90;60.30;;;;;;5058181;28;20083;-77
2022/03/10 08:58:18;;;;;;;16.52;8.07;;;6.10;59.90;;;;;;5036041;28;20085;-77
2022/03/10 09:00:44;;;;;;;14.10;8.35;;;6.40;59.80;;;;;;5031990;28;20504;-77
2022/03/10 09:03:09;;;;;;;15.30;8.07;;;6.60;59.50;;;;;;5055190;28;20101;-76
2022/03/10 09:05:37;;;;;;;16.77;7.55;;;6.80;59.20;;;;;;5064362;28;20033;-77
2022/03/10 09:08:03;;;;;;;14.32;8.02;;;7.00;58.80;;;;;;5061443;28;20194;-77
2022/03/10 09:10:28;;;;;;;17.13;8.70;;;7.20;58.60;;;;;;5065209;28;20035;-77
2022/03/10 09:12:54;;;;;;;17.75;8.77;;;7.40;58.30;;;;;;5062215;28;20037;-78
2022/03/10 09:15:21;;;;;;;15.60;7.43;;;7.60;58.10;;;;;;5062813;28;20099;-77
2022/03/10 09:17:47;;;;;;;14.15;8.93;;;7.80;57.90;;;;;;5051128;28;20045;-78
2022/03/10 09:20:13;;;;;;;13.77;6.88;;;8.00;57.70;;;;;;5057313;28;20024;-77
2022/03/10 09:22:39;;;;;;;14.80;7.97;;;8.30;57.40;;;;;;5023023;28;20468;-79
2022/03/10 09:25:08;;;;;;;18.52;7.82;;;8.50;57.80;;;;;;5040262;28;20036;-77
2022/03/10 09:27:36;;;;;;;13.18;7.80;;;8.70;56.70;;;;;;5044594;28;20474;-77
2022/03/10 09:30:03;;;;;;;14.10;7.78;;;8.90;56.40;;;;;;5046601;28;20436;-73
2022/03/10 09:32:57;;;;;;;14.65;7.82;;;9.10;56.30;;;;;;5074533;28;20129;-73
2022/03/10 09:35:23;;;;;;;17.42;8.30;;;9.40;55.90;;;;;;5051521;28;20032;-74
2022/03/10 09:37:48;;;;;;;13.52;8.45;;;9.60;55.80;;;;;;5063782;28;20063;-73
2022/03/10 09:40:14;;;;;;;14.13;7.63;;;9.90;55.50;;;;;;5061591;28;20028;-74
2022/03/10 09:42:39;;;;;;;11.52;7.43;;;10.10;55.10;;;;;;5060059;28;20086;-73
2022/03/10 09:45:09;;;;;;;11.73;7.00;;;10.30;54.90;;;;;;5063761;28;20837;-74
2022/03/10 09:47:40;;;;;;;14.23;7.40;;;10.60;54.70;;;;;;5057916;28;20032;-73
2022/03/10 09:50:10;;;;;;;12.15;7.50;;;10.90;54.30;;;;;;5064401;28;20060;-74
2022/03/10 09:52:35;;;;;;;12.63;7.05;;;11.10;54.00;;;;;;5043986;28;20037;-74
2022/03/10 09:55:01;;;;;;;12.38;7.13;;;11.40;53.70;;;;;;5070552;28;20042;-73
2022/03/10 09:57:26;;;;;;;11.00;7.25;;;11.60;53.30;;;;;;5062229;28;20494;-74
2022/03/10 09:59:53;;;;;;;13.85;8.02;;;11.90;53.10;;;;;;5037353;28;20032;-74
2022/03/10 10:02:19;;;;;;;11.60;7.65;;;12.10;52.50;;;;;;5061652;28;20036;-74
2022/03/10 10:04:45;;;;;;;10.32;6.80;;;12.20;52.10;;;;;;5060906;28;20431;-73
2022/03/10 10:07:11;;;;;;;10.57;6.70;;;12.30;51.90;;;;;;5056906;28;20041;-74
2022/03/10 10:09:46;;;;;;;10.90;7.15;;;12.60;51.80;;;;;;5065566;28;20040;-74
2022/03/10 10:12:12;;;;;;;13.02;7.65;;;12.80;51.30;;;;;;5047514;28;20051;-74
2022/03/10 10:14:40;;;;;;;13.10;8.20;;;13.00;51.00;;;;;;5044480;28;20036;-74
2022/03/10 10:17:05;;;;;;;12.35;8.00;;;13.10;50.50;;;;;;5052041;28;20045;-74
2022/03/10 10:19:35;;;;;;;15.95;7.80;;;13.20;50.10;;;;;;5048167;28;20078;-73
2022/03/10 10:22:19;;;;;;;12.75;8.07;;;13.30;50.00;;;;;;5056207;28;20040;-74
2022/03/10 10:24:57;;;;;;;15.15;8.27;;;13.50;49.20;;;;;;5045157;28;20033;-74
2022/03/10 10:27:29;;;;;;;13.82;7.70;;;13.60;48.90;;;;;;5031417;28;20039;-74
2022/03/10 10:29:56;;;;;;;13.70;7.28;;;13.80;49.10;;;;;;5054757;28;20546;-74
2022/03/10 10:32:32;;;;;;;14.32;8.23;;;13.90;48.90;;;;;;5047628;28;20029;-74
2022/03/10 10:34:59;;;;;;;14.20;8.23;;;14.10;48.30;;;;;;5065195;28;20793;-74
2022/03/10 10:37:25;;;;;;;11.98;7.30;;;14.30;48.40;;;;;;5058932;28;20059;-78
2022/03/10 10:39:51;;;;;;;13.38;7.00;;;14.50;48.30;;;;;;5062566;28;20049;-79
2022/03/10 10:42:17;;;;;;;10.57;6.97;;;14.70;48.10;;;;;;5059872;28;20025;-77
2022/03/10 10:44:42;;;;;;;11.45;7.10;;;15.00;47.90;;;;;;5075667;28;20864;-77
2022/03/10 10:47:08;;;;;;;13.32;7.28;;;15.20;48.30;;;;;;5056520;28;20068;-77
2022/03/10 10:49:35;;;;;;;11.88;7.45;;;15.40;47.40;;;;;;5040542;28;20028;-79
2022/03/10 10:52:01;;;;;;;14.63;6.97;;;15.60;47.00;;;;;;5047213;28;20127;-78
2022/03/10 10:54:28;;;;;;;12.25;7.70;;;15.80;46.60;;;;;;5039294;28;20517;-77
2022/03/10 10:57:03;;;;;;;11.55;7.70;;;16.00;46.20;;;;;;5042645;28;20033;-77
2022/03/10 10:59:34;;;;;;;12.45;7.28;;;16.20;46.00;;;;;;5043847;28;20029;-77
2022/03/10 11:02:12;;;;;;;11.10;7.63;;;16.30;45.30;;;;;;5039059;28;20139;-78
2022/03/10 11:04:41;;;;;;;9.82;7.00;;;16.30;44.60;;;;;;5060117;28;20046;-77
2022/03/10 11:07:10;;;;;;;10.52;7.35;;;16.40;44.60;;;;;;5033810;28;20225;-77
2022/03/10 11:09:37;;;;;;;11.43;7.70;;;16.50;44.50;;;;;;5042753;28;20471;-77
2022/03/10 11:12:03;;;;;;;12.43;7.35;;;16.70;44.30;;;;;;5044048;28;20029;-77
2022/03/10 11:14:28;;;;;;;10.68;6.88;;;16.90;44.10;;;;;;5055447;28;20045;-80
2022/03/10 11:16:55;;;;;;;12.57;6.60;;;17.20;44.00;;;;;;5039780;28;20938;-78
2022/03/10 11:19:25;;;;;;;10.48;6.85;;;17.40;43.80;;;;;;5043309;28;20112;-77
2022/03/10 11:22:31;;;;;;;12.45;7.43;;;17.70;43.60;;;;;;5048738;28;20032;-77
2022/03/10 11:25:06;;;;;;;10.77;7.18;;;17.90;42.00;;;;;;5059713;28;20040;-77
2022/03/10 11:28:05;;;;;;;12.57;7.00;;;18.00;42.60;;;;;;5055562;28;20113;-79
2022/03/10 11:30:32;;;;;;;12.55;7.72;;;18.30;41.80;;;;;;5011275;28;20052;-77
2022/03/10 11:33:09;;;;;;;11.18;6.53;;;18.50;42.20;;;;;;5036355;28;20063;-77
2022/03/10 11:35:42;;;;;;;10.05;6.45;;;18.70;41.70;;;;;;5062402;28;21049;-77
2022/03/10 11:38:08;;;;;;;9.52;6.63;;;18.90;41.20;;;;;;5034185;28;20044;-78
2022/03/10 11:40:41;;;;;;;9.02;6.38;;;19.10;41.30;;;;;;5037967;28;20382;-77
2022/03/10 11:43:07;;;;;;;8.43;6.47;;;19.30;40.90;;;;;;5062158;28;20530;-77
2022/03/10 11:45:32;;;;;;;13.13;7.07;;;19.50;40.60;;;;;;5035145;28;20749;-77
2022/03/10 11:48:23;;;;;;;12.82;6.90;;;19.60;40.30;;;;;;5068120;28;20045;-77
2022/03/10 11:50:49;;;;;;;10.25;6.90;;;19.70;39.40;;;;;;5060083;28;20036;-77
2022/03/10 11:53:14;;;;;;;10.52;6.10;;;19.80;40.00;;;;;;5054611;28;20668;-78
2022/03/10 11:55:53;;;;;;;10.82;7.30;;;20.00;39.70;;;;;;5060264;28;20127;-77
2022/03/10 11:58:20;;;;;;;9.70;6.85;;;20.20;39.60;;;;;;5041666;28;20043;-77
2022/03/10 12:00:50;;;;;;;11.75;6.57;;;20.30;39.10;;;;;;5032531;28;20060;-77
2022/03/10 12:03:18;;;;;;;11.73;6.13;;;20.50;38.70;;;;;;5049777;28;20120;-77
2022/03/10 12:06:02;;;;;;;10.60;6.60;;;20.60;38.50;;;;;;5064546;28;20036;-77
2022/03/10 12:08:38;;;;;;;10.95;6.50;;;20.80;38.00;;;;;;5068853;28;20036;-77
2022/03/10 12:11:08;;;;;;;10.63;6.47;;;20.90;38.00;;;;;;5065584;28;20070;-77
2022/03/10 12:13:44;;;;;;;9.57;7.10;;;21.00;38.10;;;;;;5073096;28;20040;-76
2022/03/10 12:16:26;;;;;;;9.55;6.38;;;21.10;37.50;;;;;;5043533;28;20033;-78
2022/03/10 12:18:52;;;;;;;10.15;7.10;;;21.30;36.80;;;;;;5062319;28;20059;-77
2022/03/10 12:21:27;;;;;;;12.00;6.38;;;21.40;37.40;;;;;;5052947;28;20539;-77
2022/03/10 12:23:59;;;;;;;10.98;6.55;;;21.50;36.80;;;;;;5041449;28;20153;-77
2022/03/10 12:26:29;;;;;;;9.00;6.32;;;21.60;37.10;;;;;;5061229;28;20033;-77
2022/03/10 12:28:59;;;;;;;10.45;6.20;;;21.70;36.70;;;;;;5049685;28;20040;-78
2022/03/10 12:31:27;;;;;;;9.77;6.05;;;21.80;36.70;;;;;;5051194;28;20028;-77
2022/03/10 12:33:54;;;;;;;10.07;6.85;;;21.90;36.50;;;;;;5038968;28;20037;-77
2022/03/10 12:36:35;;;;;;;9.23;5.50;;;22.00;36.30;;;;;;5038578;28;20028;-79
2022/03/10 12:39:23;;;;;;;8.68;6.03;;;22.10;35.80;;;;;;5051953;28;20062;-78
2022/03/10 12:41:50;;;;;;;8.73;6.28;;;22.10;35.90;;;;;;5049445;28;20064;-77
2022/03/10 12:44:23;;;;;;;10.35;6.80;;;22.20;35.80;;;;;;5048168;28;20033;-78
2022/03/10 12:46:49;;;;;;;11.10;6.70;;;22.20;35.30;;;;;;5031135;28;20036;-79